sensor_id;sensor_type;location;lat;lon;timestamp;temperature;humidity
7048;DHT22;3565;53.254;10.352;2022-10-16T00:02:35;13.50;99.90
7048;DHT22;3565;53.254;10.352;2022-10-16T00:07:33;13.40;99.90
7048;DHT22;3565;53.254;10.352;2022-10-16T00:24:52;13.30;99.90
7048;DHT22;3565;53.254;10.352;2022-10-16T00:29:52;13.20;99.90
7048;DHT22;3565;53.254;10.352;2022-10-16T00:37:18;13.10;99.90
7048;DHT22;3565;53.254;10.352;2022-10-16T00:44:51;13.00;99.90
7048;DHT22;3565;53.254;10.352;2022-10-16T00:47:24;13.00;99.90
7048;DHT22;3565;53.254;10.352;2022-10-16T00:52:23;12.90;99.90
7048;DHT22;3565;53.254;10.352;2022-10-16T01:10:03;12.60;99.90
7048;DHT22;3565;53.254;10.352;2022-10-16T01:15:06;12.50;99.90
7048;DHT22;3565;53.254;10.352;2022-10-16T01:17:39;12.60;99.90
7048;DHT22;3565;53.254;10.352;2022-10-16T01:25:14;12.50;99.90
7048;DHT22;3565;53.254;10.352;2022-10-16T01:42:47;12.30;99.90
7048;DHT22;3565;53.254;10.352;2022-10-16T01:45:19;12.30;99.90
7048;DHT22;3565;53.254;10.352;2022-10-16T01:47:50;12.30;99.90
7048;DHT22;3565;53.254;10.352;2022-10-16T01:50:22;12.30;99.90
7048;DHT22;3565;53.254;10.352;2022-10-16T02:07:50;12.20;99.90
7048;DHT22;3565;53.254;10.352;2022-10-16T02:17:46;12.20;99.90
7048;DHT22;3565;53.254;10.352;2022-10-16T02:22:46;12.30;99.90
7048;DHT22;3565;53.254;10.352;2022-10-16T02:25:19;12.40;99.90
7048;DHT22;3565;53.254;10.352;2022-10-16T02:40:18;12.10;99.90
7048;DHT22;3565;53.254;10.352;2022-10-16T02:52:43;12.70;99.90
7048;DHT22;3565;53.254;10.352;2022-10-16T03:29:50;12.60;1.00
7048;DHT22;3565;53.254;10.352;2022-10-16T03:52:06;12.30;1.00
7048;DHT22;3565;53.254;10.352;2022-10-16T03:54:35;12.30;1.00
7048;DHT22;3565;53.254;10.352;2022-10-16T03:57:04;12.20;1.00
7048;DHT22;3565;53.254;10.352;2022-10-16T04:16:50;12.10;1.00
7048;DHT22;3565;53.254;10.352;2022-10-16T04:34:09;12.10;1.00
7048;DHT22;3565;53.254;10.352;2022-10-16T04:49:01;12.20;1.00
7048;DHT22;3565;53.254;10.352;2022-10-16T04:53:58;12.30;1.00
7048;DHT22;3565;53.254;10.352;2022-10-16T04:59:03;12.60;1.00
7048;DHT22;3565;53.254;10.352;2022-10-16T05:01:32;12.40;1.00
7048;DHT22;3565;53.254;10.352;2022-10-16T05:04:01;12.30;1.00
7048;DHT22;3565;53.254;10.352;2022-10-16T05:09:07;12.30;1.00
7048;DHT22;3565;53.254;10.352;2022-10-16T05:11:36;12.30;1.00
7048;DHT22;3565;53.254;10.352;2022-10-16T05:14:05;12.30;1.00
7048;DHT22;3565;53.254;10.352;2022-10-16T05:16:33;12.30;1.00
7048;DHT22;3565;53.254;10.352;2022-10-16T05:19:02;12.30;1.00
7048;DHT22;3565;53.254;10.352;2022-10-16T05:21:31;12.30;1.00
7048;DHT22;3565;53.254;10.352;2022-10-16T05:24:00;12.30;1.00
7048;DHT22;3565;53.254;10.352;2022-10-16T05:26:29;12.30;1.00
7048;DHT22;3565;53.254;10.352;2022-10-16T05:28:57;12.30;1.00
7048;DHT22;3565;53.254;10.352;2022-10-16T05:31:26;12.30;1.00
7048;DHT22;3565;53.254;10.352;2022-10-16T05:33:59;12.30;1.00
7048;DHT22;3565;53.254;10.352;2022-10-16T05:36:28;12.30;1.00
7048;DHT22;3565;53.254;10.352;2022-10-16T05:38:57;12.30;1.00
7048;DHT22;3565;53.254;10.352;2022-10-16T05:41:26;12.30;1.00
7048;DHT22;3565;53.254;10.352;2022-10-16T05:43:55;12.30;1.00
7048;DHT22;3565;53.254;10.352;2022-10-16T05:46:23;12.20;1.00
7048;DHT22;3565;53.254;10.352;2022-10-16T05:48:53;12.20;1.00
7048;DHT22;3565;53.254;10.352;2022-10-16T05:51:21;12.20;1.00
7048;DHT22;3565;53.254;10.352;2022-10-16T05:53:51;12.20;1.00
7048;DHT22;3565;53.254;10.352;2022-10-16T05:56:20;12.20;1.00
7048;DHT22;3565;53.254;10.352;2022-10-16T05:58:49;12.20;1.00
7048;DHT22;3565;53.254;10.352;2022-10-16T06:01:18;12.10;1.00
7048;DHT22;3565;53.254;10.352;2022-10-16T06:03:50;12.20;1.00
7048;DHT22;3565;53.254;10.352;2022-10-16T06:06:20;12.10;1.00
7048;DHT22;3565;53.254;10.352;2022-10-16T06:08:49;12.20;1.00
7048;DHT22;3565;53.254;10.352;2022-10-16T06:11:20;12.20;1.00
7048;DHT22;3565;53.254;10.352;2022-10-16T06:13:50;12.20;1.00
7048;DHT22;3565;53.254;10.352;2022-10-16T06:16:19;12.20;1.00
7048;DHT22;3565;53.254;10.352;2022-10-16T06:18:50;12.20;1.00
7048;DHT22;3565;53.254;10.352;2022-10-16T06:21:21;12.20;1.00
7048;DHT22;3565;53.254;10.352;2022-10-16T06:23:52;12.20;1.00
7048;DHT22;3565;53.254;10.352;2022-10-16T06:26:23;12.20;1.00
7048;DHT22;3565;53.254;10.352;2022-10-16T06:28:53;12.20;1.00
7048;DHT22;3565;53.254;10.352;2022-10-16T06:31:22;12.20;1.00
7048;DHT22;3565;53.254;10.352;2022-10-16T06:33:53;12.20;1.00
7048;DHT22;3565;53.254;10.352;2022-10-16T06:36:23;12.20;1.00
7048;DHT22;3565;53.254;10.352;2022-10-16T06:38:52;12.20;1.00
7048;DHT22;3565;53.254;10.352;2022-10-16T06:41:22;12.20;1.00
7048;DHT22;3565;53.254;10.352;2022-10-16T06:43:51;12.20;1.00
7048;DHT22;3565;53.254;10.352;2022-10-16T06:48:49;12.30;1.00
7048;DHT22;3565;53.254;10.352;2022-10-16T06:51:19;12.40;1.00
7048;DHT22;3565;53.254;10.352;2022-10-16T06:53:50;12.40;1.00
7048;DHT22;3565;53.254;10.352;2022-10-16T06:58:48;12.50;1.00
7048;DHT22;3565;53.254;10.352;2022-10-16T07:01:19;12.40;1.00
7048;DHT22;3565;53.254;10.352;2022-10-16T07:03:48;12.40;1.00
7048;DHT22;3565;53.254;10.352;2022-10-16T07:08:47;12.50;1.00
7048;DHT22;3565;53.254;10.352;2022-10-16T07:11:18;12.50;1.00
7048;DHT22;3565;53.254;10.352;2022-10-16T07:13:48;12.50;1.00
7048;DHT22;3565;53.254;10.352;2022-10-16T07:18:46;12.60;1.00
7048;DHT22;3565;53.254;10.352;2022-10-16T07:21:18;12.70;1.00
7048;DHT22;3565;53.254;10.352;2022-10-16T07:23:51;12.70;1.00
7048;DHT22;3565;53.254;10.352;2022-10-16T07:26:21;12.90;1.00
7048;DHT22;3565;53.254;10.352;2022-10-16T07:28:49;13.20;1.00
7048;DHT22;3565;53.254;10.352;2022-10-16T07:31:20;13.30;1.00
7048;DHT22;3565;53.254;10.352;2022-10-16T07:33:50;13.40;1.00
7048;DHT22;3565;53.254;10.352;2022-10-16T07:36:20;13.50;1.00
7048;DHT22;3565;53.254;10.352;2022-10-16T07:38:49;13.70;1.00
7048;DHT22;3565;53.254;10.352;2022-10-16T07:41:19;13.60;1.00
7048;DHT22;3565;53.254;10.352;2022-10-16T07:43:49;14.00;1.00
7048;DHT22;3565;53.254;10.352;2022-10-16T07:46:19;14.20;99.90
7048;DHT22;3565;53.254;10.352;2022-10-16T07:48:48;14.20;99.90
7048;DHT22;3565;53.254;10.352;2022-10-16T07:51:19;14.90;99.90
7048;DHT22;3565;53.254;10.352;2022-10-16T07:53:49;14.80;99.90
7048;DHT22;3565;53.254;10.352;2022-10-16T07:56:19;15.10;99.90
7048;DHT22;3565;53.254;10.352;2022-10-16T07:58:48;15.30;99.90
7048;DHT22;3565;53.254;10.352;2022-10-16T08:01:18;15.80;13.70
7048;DHT22;3565;53.254;10.352;2022-10-16T08:03:48;15.80;1.00
7048;DHT22;3565;53.254;10.352;2022-10-16T08:06:17;16.30;1.00
7048;DHT22;3565;53.254;10.352;2022-10-16T08:08:46;16.40;1.00
7048;DHT22;3565;53.254;10.352;2022-10-16T08:11:15;16.80;1.00
7048;DHT22;3565;53.254;10.352;2022-10-16T08:13:44;17.40;1.00
7048;DHT22;3565;53.254;10.352;2022-10-16T08:16:13;17.10;99.90
7048;DHT22;3565;53.254;10.352;2022-10-16T08:21:13;17.00;1.00
7048;DHT22;3565;53.254;10.352;2022-10-16T08:23:42;17.00;1.00
7048;DHT22;3565;53.254;10.352;2022-10-16T08:26:12;16.30;1.00
7048;DHT22;3565;53.254;10.352;2022-10-16T08:28:41;16.50;99.90
7048;DHT22;3565;53.254;10.352;2022-10-16T08:31:12;16.50;99.90
7048;DHT22;3565;53.254;10.352;2022-10-16T08:33:44;17.10;1.00
7048;DHT22;3565;53.254;10.352;2022-10-16T08:36:15;17.60;81.10
7048;DHT22;3565;53.254;10.352;2022-10-16T08:38:46;17.50;99.90
7048;DHT22;3565;53.254;10.352;2022-10-16T08:41:35;17.30;99.90
7048;DHT22;3565;53.254;10.352;2022-10-16T08:44:33;17.30;99.90
7048;DHT22;3565;53.254;10.352;2022-10-16T08:47:06;17.50;99.30
7048;DHT22;3565;53.254;10.352;2022-10-16T08:49:36;16.80;1.00
7048;DHT22;3565;53.254;10.352;2022-10-16T08:52:07;16.80;1.00
7048;DHT22;3565;53.254;10.352;2022-10-16T08:54:41;16.80;1.00
7048;DHT22;3565;53.254;10.352;2022-10-16T08:57:13;16.50;99.90
7048;DHT22;3565;53.254;10.352;2022-10-16T08:59:42;16.90;1.00
7048;DHT22;3565;53.254;10.352;2022-10-16T09:02:23;16.90;1.00
7048;DHT22;3565;53.254;10.352;2022-10-16T09:04:59;17.50;97.90
7048;DHT22;3565;53.254;10.352;2022-10-16T09:07:34;17.40;99.90
7048;DHT22;3565;53.254;10.352;2022-10-16T09:10:13;17.70;99.90
7048;DHT22;3565;53.254;10.352;2022-10-16T09:12:49;18.10;1.00
7048;DHT22;3565;53.254;10.352;2022-10-16T09:15:19;18.60;1.00
7048;DHT22;3565;53.254;10.352;2022-10-16T09:17:54;18.10;1.00
7048;DHT22;3565;53.254;10.352;2022-10-16T09:20:38;18.50;1.00
7048;DHT22;3565;53.254;10.352;2022-10-16T09:23:14;18.40;1.00
7048;DHT22;3565;53.254;10.352;2022-10-16T09:25:46;18.80;99.90
7048;DHT22;3565;53.254;10.352;2022-10-16T09:28:16;18.90;99.90
7048;DHT22;3565;53.254;10.352;2022-10-16T09:30:46;18.20;1.00
7048;DHT22;3565;53.254;10.352;2022-10-16T09:33:18;18.90;99.90
7048;DHT22;3565;53.254;10.352;2022-10-16T09:35:50;19.20;99.90
7048;DHT22;3565;53.254;10.352;2022-10-16T09:38:25;19.50;99.90
7048;DHT22;3565;53.254;10.352;2022-10-16T09:40:56;19.60;99.90
7048;DHT22;3565;53.254;10.352;2022-10-16T09:43:28;19.60;99.90
7048;DHT22;3565;53.254;10.352;2022-10-16T09:46:00;19.70;99.90
7048;DHT22;3565;53.254;10.352;2022-10-16T09:48:31;19.90;99.90
7048;DHT22;3565;53.254;10.352;2022-10-16T09:51:03;19.00;99.90
7048;DHT22;3565;53.254;10.352;2022-10-16T09:53:41;18.90;99.90
7048;DHT22;3565;53.254;10.352;2022-10-16T09:56:12;19.50;99.90
7048;DHT22;3565;53.254;10.352;2022-10-16T09:58:49;19.50;99.90
7048;DHT22;3565;53.254;10.352;2022-10-16T10:01:20;19.60;99.90
7048;DHT22;3565;53.254;10.352;2022-10-16T10:03:49;19.80;94.00
7048;DHT22;3565;53.254;10.352;2022-10-16T10:06:23;19.80;88.00
7048;DHT22;3565;53.254;10.352;2022-10-16T10:09:02;21.00;1.00
7048;DHT22;3565;53.254;10.352;2022-10-16T10:11:48;20.20;28.20
7048;DHT22;3565;53.254;10.352;2022-10-16T10:14:26;20.30;19.10
7048;DHT22;3565;53.254;10.352;2022-10-16T10:17:15;20.90;1.00
7048;DHT22;3565;53.254;10.352;2022-10-16T10:19:51;21.00;1.00
7048;DHT22;3565;53.254;10.352;2022-10-16T10:22:30;20.30;1.00
7048;DHT22;3565;53.254;10.352;2022-10-16T10:25:22;20.30;1.00
7048;DHT22;3565;53.254;10.352;2022-10-16T10:28:14;20.50;5.60
7048;DHT22;3565;53.254;10.352;2022-10-16T10:30:44;20.80;1.00
7048;DHT22;3565;53.254;10.352;2022-10-16T10:33:24;21.40;1.00
7048;DHT22;3565;53.254;10.352;2022-10-16T10:36:01;20.90;99.90
7048;DHT22;3565;53.254;10.352;2022-10-16T10:38:34;21.40;99.90
7048;DHT22;3565;53.254;10.352;2022-10-16T10:41:12;21.50;1.00
7048;DHT22;3565;53.254;10.352;2022-10-16T10:43:48;21.70;1.00
7048;DHT22;3565;53.254;10.352;2022-10-16T10:46:20;20.50;1.00
7048;DHT22;3565;53.254;10.352;2022-10-16T10:49:01;20.90;99.90
7048;DHT22;3565;53.254;10.352;2022-10-16T10:51:34;20.90;99.90
7048;DHT22;3565;53.254;10.352;2022-10-16T10:54:07;21.10;1.00
7048;DHT22;3565;53.254;10.352;2022-10-16T10:56:48;21.60;1.00
7048;DHT22;3565;53.254;10.352;2022-10-16T10:59:32;21.60;15.30
7048;DHT22;3565;53.254;10.352;2022-10-16T11:02:03;21.50;1.00
7048;DHT22;3565;53.254;10.352;2022-10-16T11:05:00;21.50;99.90
7048;DHT22;3565;53.254;10.352;2022-10-16T11:07:32;21.00;1.00
7048;DHT22;3565;53.254;10.352;2022-10-16T11:10:03;21.10;99.90
7048;DHT22;3565;53.254;10.352;2022-10-16T11:12:35;21.50;99.90
7048;DHT22;3565;53.254;10.352;2022-10-16T11:15:11;22.20;28.50
7048;DHT22;3565;53.254;10.352;2022-10-16T11:17:40;22.80;99.90
7048;DHT22;3565;53.254;10.352;2022-10-16T11:20:16;21.90;1.00
7048;DHT22;3565;53.254;10.352;2022-10-16T11:22:48;21.80;99.90
7048;DHT22;3565;53.254;10.352;2022-10-16T11:25:20;22.00;99.90
7048;DHT22;3565;53.254;10.352;2022-10-16T11:27:51;21.50;99.90
7048;DHT22;3565;53.254;10.352;2022-10-16T11:30:23;21.20;16.30
7048;DHT22;3565;53.254;10.352;2022-10-16T11:33:03;21.10;99.90
7048;DHT22;3565;53.254;10.352;2022-10-16T11:35:38;20.50;1.00
7048;DHT22;3565;53.254;10.352;2022-10-16T11:38:12;20.70;1.00
7048;DHT22;3565;53.254;10.352;2022-10-16T11:40:43;20.50;1.00
7048;DHT22;3565;53.254;10.352;2022-10-16T11:43:19;20.50;1.00
7048;DHT22;3565;53.254;10.352;2022-10-16T11:45:49;21.20;99.90
7048;DHT22;3565;53.254;10.352;2022-10-16T11:48:24;21.10;1.00
7048;DHT22;3565;53.254;10.352;2022-10-16T11:50:56;21.40;1.00
7048;DHT22;3565;53.254;10.352;2022-10-16T11:56:18;21.00;1.00
7048;DHT22;3565;53.254;10.352;2022-10-16T11:58:52;20.80;1.00
7048;DHT22;3565;53.254;10.352;2022-10-16T12:01:27;20.50;99.90
7048;DHT22;3565;53.254;10.352;2022-10-16T12:04:06;20.40;99.90
7048;DHT22;3565;53.254;10.352;2022-10-16T12:06:39;20.30;1.00
7048;DHT22;3565;53.254;10.352;2022-10-16T12:09:14;20.40;85.30
7048;DHT22;3565;53.254;10.352;2022-10-16T12:11:44;20.40;99.90
7048;DHT22;3565;53.254;10.352;2022-10-16T12:14:34;21.00;99.90
7048;DHT22;3565;53.254;10.352;2022-10-16T12:17:23;20.40;99.90
7048;DHT22;3565;53.254;10.352;2022-10-16T12:19:35;20.60;99.90
7048;DHT22;3565;53.254;10.352;2022-10-16T12:22:04;21.00;99.90
7048;DHT22;3565;53.254;10.352;2022-10-16T12:24:36;20.70;99.90
7048;DHT22;3565;53.254;10.352;2022-10-16T12:29:36;20.40;1.00
7048;DHT22;3565;53.254;10.352;2022-10-16T12:32:20;19.90;1.00
7048;DHT22;3565;53.254;10.352;2022-10-16T12:34:49;19.30;99.90
7048;DHT22;3565;53.254;10.352;2022-10-16T12:37:22;19.40;99.90
7048;DHT22;3565;53.254;10.352;2022-10-16T12:39:52;19.70;99.90
7048;DHT22;3565;53.254;10.352;2022-10-16T12:42:32;20.30;99.90
7048;DHT22;3565;53.254;10.352;2022-10-16T12:44:55;20.20;99.90
7048;DHT22;3565;53.254;10.352;2022-10-16T12:47:47;20.70;99.90
7048;DHT22;3565;53.254;10.352;2022-10-16T12:50:00;21.40;99.90
7048;DHT22;3565;53.254;10.352;2022-10-16T12:52:35;21.50;99.90
7048;DHT22;3565;53.254;10.352;2022-10-16T12:55:13;21.80;99.90
7048;DHT22;3565;53.254;10.352;2022-10-16T12:57:46;22.20;99.90
7048;DHT22;3565;53.254;10.352;2022-10-16T13:00:20;22.20;99.90
7048;DHT22;3565;53.254;10.352;2022-10-16T13:03:12;21.90;99.90
7048;DHT22;3565;53.254;10.352;2022-10-16T13:05:47;22.30;99.90
7048;DHT22;3565;53.254;10.352;2022-10-16T13:08:31;22.00;99.90
7048;DHT22;3565;53.254;10.352;2022-10-16T13:11:04;21.30;99.90
7048;DHT22;3565;53.254;10.352;2022-10-16T13:13:47;21.10;99.90
7048;DHT22;3565;53.254;10.352;2022-10-16T13:16:21;21.10;99.90
7048;DHT22;3565;53.254;10.352;2022-10-16T13:18:56;21.20;99.90
7048;DHT22;3565;53.254;10.352;2022-10-16T13:21:41;21.20;99.90
7048;DHT22;3565;53.254;10.352;2022-10-16T13:24:17;21.80;99.90
7048;DHT22;3565;53.254;10.352;2022-10-16T13:26:49;22.50;99.90
7048;DHT22;3565;53.254;10.352;2022-10-16T13:29:19;22.50;99.90
7048;DHT22;3565;53.254;10.352;2022-10-16T13:31:49;22.60;99.90
7048;DHT22;3565;53.254;10.352;2022-10-16T13:34:21;22.70;99.90
7048;DHT22;3565;53.254;10.352;2022-10-16T13:36:50;22.50;1.00
7048;DHT22;3565;53.254;10.352;2022-10-16T13:39:23;22.50;99.90
7048;DHT22;3565;53.254;10.352;2022-10-16T13:42:03;22.10;99.90
7048;DHT22;3565;53.254;10.352;2022-10-16T13:44:35;21.40;1.00
7048;DHT22;3565;53.254;10.352;2022-10-16T13:47:10;21.30;99.90
7048;DHT22;3565;53.254;10.352;2022-10-16T13:49:41;21.10;1.00
7048;DHT22;3565;53.254;10.352;2022-10-16T13:52:19;20.20;99.90
7048;DHT22;3565;53.254;10.352;2022-10-16T13:54:48;20.20;32.90
7048;DHT22;3565;53.254;10.352;2022-10-16T13:57:17;20.40;99.90
7048;DHT22;3565;53.254;10.352;2022-10-16T13:59:46;20.40;99.90
7048;DHT22;3565;53.254;10.352;2022-10-16T14:02:20;20.30;99.90
7048;DHT22;3565;53.254;10.352;2022-10-16T14:04:49;20.40;99.90
7048;DHT22;3565;53.254;10.352;2022-10-16T14:09:51;20.20;99.90
7048;DHT22;3565;53.254;10.352;2022-10-16T14:12:21;20.50;99.90
7048;DHT22;3565;53.254;10.352;2022-10-16T14:14:51;20.40;99.90
7048;DHT22;3565;53.254;10.352;2022-10-16T14:17:23;20.10;99.90
7048;DHT22;3565;53.254;10.352;2022-10-16T14:19:54;19.80;99.90
7048;DHT22;3565;53.254;10.352;2022-10-16T14:22:29;19.40;99.90
7048;DHT22;3565;53.254;10.352;2022-10-16T14:24:58;19.40;99.90
7048;DHT22;3565;53.254;10.352;2022-10-16T14:27:31;19.40;99.90
7048;DHT22;3565;53.254;10.352;2022-10-16T14:30:17;19.70;99.90
7048;DHT22;3565;53.254;10.352;2022-10-16T14:32:55;19.70;99.90
7048;DHT22;3565;53.254;10.352;2022-10-16T14:35:26;19.80;99.90
7048;DHT22;3565;53.254;10.352;2022-10-16T14:37:56;19.80;99.90
7048;DHT22;3565;53.254;10.352;2022-10-16T14:40:27;19.80;99.90
7048;DHT22;3565;53.254;10.352;2022-10-16T14:42:58;19.80;99.90
7048;DHT22;3565;53.254;10.352;2022-10-16T14:45:30;19.90;99.90
7048;DHT22;3565;53.254;10.352;2022-10-16T14:48:01;19.90;99.90
7048;DHT22;3565;53.254;10.352;2022-10-16T14:50:30;19.90;99.90
7048;DHT22;3565;53.254;10.352;2022-10-16T14:52:59;20.10;99.90
7048;DHT22;3565;53.254;10.352;2022-10-16T14:57:56;19.30;99.90
7048;DHT22;3565;53.254;10.352;2022-10-16T15:00:25;19.10;99.90
7048;DHT22;3565;53.254;10.352;2022-10-16T15:02:54;19.40;99.90
7048;DHT22;3565;53.254;10.352;2022-10-16T15:05:24;19.70;99.90
7048;DHT22;3565;53.254;10.352;2022-10-16T15:07:54;19.70;99.90
7048;DHT22;3565;53.254;10.352;2022-10-16T15:10:24;19.90;99.90
7048;DHT22;3565;53.254;10.352;2022-10-16T15:12:54;20.00;99.90
7048;DHT22;3565;53.254;10.352;2022-10-16T15:15:32;20.00;99.90
7048;DHT22;3565;53.254;10.352;2022-10-16T15:18:02;20.00;99.90
7048;DHT22;3565;53.254;10.352;2022-10-16T15:23:02;19.90;99.90
7048;DHT22;3565;53.254;10.352;2022-10-16T15:25:36;19.90;99.90
7048;DHT22;3565;53.254;10.352;2022-10-16T15:28:07;19.40;99.90
7048;DHT22;3565;53.254;10.352;2022-10-16T15:30:37;19.40;99.90
7048;DHT22;3565;53.254;10.352;2022-10-16T15:33:10;19.20;99.90
7048;DHT22;3565;53.254;10.352;2022-10-16T15:35:39;19.00;99.90
7048;DHT22;3565;53.254;10.352;2022-10-16T15:38:11;19.20;99.90
7048;DHT22;3565;53.254;10.352;2022-10-16T15:40:41;19.20;99.90
7048;DHT22;3565;53.254;10.352;2022-10-16T15:43:10;19.10;99.90
7048;DHT22;3565;53.254;10.352;2022-10-16T15:45:39;18.90;99.90
7048;DHT22;3565;53.254;10.352;2022-10-16T15:48:11;18.80;99.90
7048;DHT22;3565;53.254;10.352;2022-10-16T15:50:40;18.70;99.90
7048;DHT22;3565;53.254;10.352;2022-10-16T15:53:09;18.30;99.90
7048;DHT22;3565;53.254;10.352;2022-10-16T15:55:38;18.20;99.90
7048;DHT22;3565;53.254;10.352;2022-10-16T16:00:35;17.90;99.90
7048;DHT22;3565;53.254;10.352;2022-10-16T16:03:04;17.70;99.90
7048;DHT22;3565;53.254;10.352;2022-10-16T16:05:36;17.60;99.90
7048;DHT22;3565;53.254;10.352;2022-10-16T16:08:04;17.50;99.90
7048;DHT22;3565;53.254;10.352;2022-10-16T16:10:32;17.30;99.90
7048;DHT22;3565;53.254;10.352;2022-10-16T16:13:01;17.10;99.90
7048;DHT22;3565;53.254;10.352;2022-10-16T16:15:30;17.00;99.90
7048;DHT22;3565;53.254;10.352;2022-10-16T16:17:59;16.90;99.90
7048;DHT22;3565;53.254;10.352;2022-10-16T16:20:29;16.90;99.90
7048;DHT22;3565;53.254;10.352;2022-10-16T16:22:58;16.90;99.90
7048;DHT22;3565;53.254;10.352;2022-10-16T16:25:26;16.60;99.90
7048;DHT22;3565;53.254;10.352;2022-10-16T16:27:56;16.50;99.90
7048;DHT22;3565;53.254;10.352;2022-10-16T16:30:25;16.40;99.90
7048;DHT22;3565;53.254;10.352;2022-10-16T16:32:54;16.20;99.90
7048;DHT22;3565;53.254;10.352;2022-10-16T16:35:22;16.00;99.90
7048;DHT22;3565;53.254;10.352;2022-10-16T16:37:51;15.90;99.90
7048;DHT22;3565;53.254;10.352;2022-10-16T16:40:20;15.70;99.90
7048;DHT22;3565;53.254;10.352;2022-10-16T16:42:49;15.50;99.90
7048;DHT22;3565;53.254;10.352;2022-10-16T16:45:18;15.40;99.90
7048;DHT22;3565;53.254;10.352;2022-10-16T16:47:47;15.30;99.90
7048;DHT22;3565;53.254;10.352;2022-10-16T16:50:15;15.20;99.90
7048;DHT22;3565;53.254;10.352;2022-10-16T16:52:44;15.00;96.20
7048;DHT22;3565;53.254;10.352;2022-10-16T16:55:13;14.90;99.90
7048;DHT22;3565;53.254;10.352;2022-10-16T16:57:42;14.80;99.90
7048;DHT22;3565;53.254;10.352;2022-10-16T17:00:12;14.70;99.90
7048;DHT22;3565;53.254;10.352;2022-10-16T17:02:41;14.60;99.90
7048;DHT22;3565;53.254;10.352;2022-10-16T17:05:12;14.50;99.90
7048;DHT22;3565;53.254;10.352;2022-10-16T17:07:40;14.40;99.90
7048;DHT22;3565;53.254;10.352;2022-10-16T17:10:09;14.30;99.90
7048;DHT22;3565;53.254;10.352;2022-10-16T17:12:38;14.20;99.90
7048;DHT22;3565;53.254;10.352;2022-10-16T17:15:09;14.10;99.90
7048;DHT22;3565;53.254;10.352;2022-10-16T17:17:38;14.00;99.90
7048;DHT22;3565;53.254;10.352;2022-10-16T17:20:09;13.90;99.90
7048;DHT22;3565;53.254;10.352;2022-10-16T17:22:38;13.80;99.90
7048;DHT22;3565;53.254;10.352;2022-10-16T17:25:09;13.80;99.90
7048;DHT22;3565;53.254;10.352;2022-10-16T17:30:07;13.60;99.90
7048;DHT22;3565;53.254;10.352;2022-10-16T17:32:36;13.60;99.90
7048;DHT22;3565;53.254;10.352;2022-10-16T17:35:06;13.50;99.90
7048;DHT22;3565;53.254;10.352;2022-10-16T17:37:35;13.30;99.90
7048;DHT22;3565;53.254;10.352;2022-10-16T17:40:05;13.20;99.90
7048;DHT22;3565;53.254;10.352;2022-10-16T17:42:34;13.10;99.90
7048;DHT22;3565;53.254;10.352;2022-10-16T17:45:04;13.00;99.90
7048;DHT22;3565;53.254;10.352;2022-10-16T17:50:02;13.00;99.90
7048;DHT22;3565;53.254;10.352;2022-10-16T17:52:30;12.90;99.90
7048;DHT22;3565;53.254;10.352;2022-10-16T17:54:59;12.90;99.90
7048;DHT22;3565;53.254;10.352;2022-10-16T17:57:28;12.90;99.90
7048;DHT22;3565;53.254;10.352;2022-10-16T17:59:57;12.80;99.90
7048;DHT22;3565;53.254;10.352;2022-10-16T18:02:26;12.70;99.90
7048;DHT22;3565;53.254;10.352;2022-10-16T18:04:54;12.70;99.90
7048;DHT22;3565;53.254;10.352;2022-10-16T18:07:24;12.70;99.90
7048;DHT22;3565;53.254;10.352;2022-10-16T18:09:53;12.60;99.90
7048;DHT22;3565;53.254;10.352;2022-10-16T18:12:21;12.60;99.90
7048;DHT22;3565;53.254;10.352;2022-10-16T18:17:20;12.40;99.90
7048;DHT22;3565;53.254;10.352;2022-10-16T18:19:48;12.40;99.90
7048;DHT22;3565;53.254;10.352;2022-10-16T18:24:46;12.20;99.90
7048;DHT22;3565;53.254;10.352;2022-10-16T18:27:15;12.20;99.90
7048;DHT22;3565;53.254;10.352;2022-10-16T18:29:44;12.20;99.90
7048;DHT22;3565;53.254;10.352;2022-10-16T18:34:40;12.00;99.90
7048;DHT22;3565;53.254;10.352;2022-10-16T18:39:38;12.00;99.90
7048;DHT22;3565;53.254;10.352;2022-10-16T18:44:35;11.90;99.90
7048;DHT22;3565;53.254;10.352;2022-10-16T18:47:04;11.80;99.90
7048;DHT22;3565;53.254;10.352;2022-10-16T18:49:33;11.80;99.90
7048;DHT22;3565;53.254;10.352;2022-10-16T18:52:02;11.70;99.90
7048;DHT22;3565;53.254;10.352;2022-10-16T18:54:31;11.60;99.90
7048;DHT22;3565;53.254;10.352;2022-10-16T18:57:00;11.60;99.90
7048;DHT22;3565;53.254;10.352;2022-10-16T18:59:29;11.60;99.90
7048;DHT22;3565;53.254;10.352;2022-10-16T19:04:26;11.50;99.90
7048;DHT22;3565;53.254;10.352;2022-10-16T19:06:55;11.50;99.90
7048;DHT22;3565;53.254;10.352;2022-10-16T19:09:24;11.50;99.90
7048;DHT22;3565;53.254;10.352;2022-10-16T19:11:52;11.60;99.90
7048;DHT22;3565;53.254;10.352;2022-10-16T19:14:21;11.50;99.90
7048;DHT22;3565;53.254;10.352;2022-10-16T19:16:51;11.60;99.90
7048;DHT22;3565;53.254;10.352;2022-10-16T19:19:20;11.60;99.90
7048;DHT22;3565;53.254;10.352;2022-10-16T19:21:50;11.60;99.90
7048;DHT22;3565;53.254;10.352;2022-10-16T19:24:21;11.60;99.90
7048;DHT22;3565;53.254;10.352;2022-10-16T19:26:50;11.50;99.90
7048;DHT22;3565;53.254;10.352;2022-10-16T19:29:19;11.50;99.90
7048;DHT22;3565;53.254;10.352;2022-10-16T19:31:48;11.50;99.90
7048;DHT22;3565;53.254;10.352;2022-10-16T19:34:17;11.50;99.90
7048;DHT22;3565;53.254;10.352;2022-10-16T19:36:46;11.40;99.90
7048;DHT22;3565;53.254;10.352;2022-10-16T19:39:16;11.30;99.90
7048;DHT22;3565;53.254;10.352;2022-10-16T19:41:45;11.30;99.90
7048;DHT22;3565;53.254;10.352;2022-10-16T19:44:16;11.10;99.90
7048;DHT22;3565;53.254;10.352;2022-10-16T19:46:45;11.10;99.90
7048;DHT22;3565;53.254;10.352;2022-10-16T19:49:17;11.00;99.90
7048;DHT22;3565;53.254;10.352;2022-10-16T19:51:48;11.00;99.90
7048;DHT22;3565;53.254;10.352;2022-10-16T19:54:18;11.00;99.90
7048;DHT22;3565;53.254;10.352;2022-10-16T19:56:47;11.10;99.90
7048;DHT22;3565;53.254;10.352;2022-10-16T19:59:16;11.00;99.90
7048;DHT22;3565;53.254;10.352;2022-10-16T20:01:47;11.00;99.90
7048;DHT22;3565;53.254;10.352;2022-10-16T20:04:15;11.00;99.90
7048;DHT22;3565;53.254;10.352;2022-10-16T20:06:44;11.10;99.90
7048;DHT22;3565;53.254;10.352;2022-10-16T20:09:13;11.10;99.90
7048;DHT22;3565;53.254;10.352;2022-10-16T20:11:42;11.10;99.90
7048;DHT22;3565;53.254;10.352;2022-10-16T20:16:39;11.10;99.90
7048;DHT22;3565;53.254;10.352;2022-10-16T20:19:08;11.00;99.90
7048;DHT22;3565;53.254;10.352;2022-10-16T20:21:37;11.00;99.90
7048;DHT22;3565;53.254;10.352;2022-10-16T20:24:06;11.00;99.90
7048;DHT22;3565;53.254;10.352;2022-10-16T20:26:54;11.10;99.90
7048;DHT22;3565;53.254;10.352;2022-10-16T20:29:23;11.00;99.90
7048;DHT22;3565;53.254;10.352;2022-10-16T20:31:52;11.10;99.90
7048;DHT22;3565;53.254;10.352;2022-10-16T20:34:20;7.30;99.90
7048;DHT22;3565;53.254;10.352;2022-10-16T20:36:49;11.00;99.90
7048;DHT22;3565;53.254;10.352;2022-10-16T20:39:18;11.00;99.90
7048;DHT22;3565;53.254;10.352;2022-10-16T20:41:47;11.10;99.90
7048;DHT22;3565;53.254;10.352;2022-10-16T20:44:16;11.10;99.90
7048;DHT22;3565;53.254;10.352;2022-10-16T20:46:44;11.00;99.90
7048;DHT22;3565;53.254;10.352;2022-10-16T20:49:13;11.00;99.90
7048;DHT22;3565;53.254;10.352;2022-10-16T20:51:42;11.10;99.90